Time;durP1;ratioP1;P1;durP2;ratioP2;P2;SDS_P1;SDS_P2;PMS_P1;PMS_P2;Temp;Humidity;BMP_temperature;BMP_pressure;BME280_temperature;BME280_humidity;BME280_pressure;Samples;Min_cycle;Max_cycle;Signal;HPM_P1;HPM_P2
2023/03/06 00:00:29;;;;;;;10.40;3.10;;;;;;;;;;5053745;28;20208;-66
2023/03/06 00:02:55;;;;;;;4.77;2.90;;;;;;;;;;5052591;28;20192;-66
2023/03/06 00:05:21;;;;;;;10.60;4.13;;;;;;;;;;5057161;28;20192;-66
2023/03/06 00:07:46;;;;;;;6.87;3.80;;;;;;;;;;5066107;28;20671;-66
2023/03/06 00:10:19;;;;;;;8.20;4.57;;;;;;;;;;5065189;28;20525;-64
2023/03/06 00:12:44;;;;;;;9.53;5.27;;;;;;;;;;5055750;28;20191;-65
2023/03/06 00:15:10;;;;;;;11.97;4.97;;;;;;;;;;5050292;28;20622;-65
2023/03/06 00:17:36;;;;;;;6.67;3.67;;;;;;;;;;5059563;28;20188;-65
2023/03/06 00:20:03;;;;;;;6.23;3.10;;;;;;;;;;5056816;28;20231;-66
2023/03/06 00:22:28;;;;;;;6.27;3.00;;;;;;;;;;5064392;28;20191;-66
2023/03/06 00:24:54;;;;;;;5.80;3.33;;;;;;;;;;5061980;28;20181;-66
2023/03/06 00:27:20;;;;;;;6.43;4.20;;;;;;;;;;5064865;28;20192;-66
2023/03/06 00:29:48;;;;;;;7.70;3.40;;;;;;;;;;5052950;28;20203;-65
2023/03/06 00:32:13;;;;;;;10.40;4.03;;;;;;;;;;5057510;28;20226;-66
2023/03/06 00:34:39;;;;;;;12.20;3.60;;;;;;;;;;5060701;28;20613;-66
2023/03/06 00:37:04;;;;;;;10.07;3.87;;;;;;;;;;5063887;28;20261;-66
2023/03/06 00:39:29;;;;;;;9.07;3.70;;;;;;;;;;5055812;28;20196;-66
2023/03/06 00:41:55;;;;;;;6.33;3.43;;;;;;;;;;5054543;28;20204;-66
2023/03/06 00:44:20;;;;;;;8.90;3.77;;;;;;;;;;5062335;28;20200;-66
2023/03/06 00:46:45;;;;;;;11.23;3.93;;;;;;;;;;5054068;28;20188;-66
2023/03/06 00:49:11;;;;;;;7.53;3.47;;;;;;;;;;5060327;28;20211;-66
2023/03/06 00:51:36;;;;;;;6.93;3.53;;;;;;;;;;5066594;28;20204;-66
2023/03/06 00:54:02;;;;;;;8.37;4.07;;;;;;;;;;5072408;28;20373;-66
2023/03/06 00:56:28;;;;;;;8.93;4.07;;;;;;;;;;5060847;28;20189;-66
2023/03/06 00:58:54;;;;;;;10.77;4.80;;;;;;;;;;5057397;28;20190;-66
2023/03/06 01:01:19;;;;;;;8.10;4.67;;;;;;;;;;5053760;28;20296;-65
2023/03/06 01:03:45;;;;;;;9.07;4.87;;;;;;;;;;5071273;28;20525;-66
2023/03/06 01:06:10;;;;;;;12.67;5.50;;;;;;;;;;5057033;28;20675;-66
2023/03/06 01:08:35;;;;;;;9.57;5.17;;;;;;;;;;5067102;28;20738;-65
2023/03/06 01:11:01;;;;;;;10.13;5.27;;;;;;;;;;5063659;28;20265;-65
2023/03/06 01:13:26;;;;;;;12.03;4.97;;;;;;;;;;5062721;28;20220;-65
2023/03/06 01:15:52;;;;;;;8.03;5.40;;;;;;;;;;5052690;28;20194;-65
2023/03/06 01:18:17;;;;;;;12.77;5.77;;;;;;;;;;5066218;28;20234;-65
2023/03/06 01:20:43;;;;;;;11.47;5.70;;;;;;;;;;5066275;28;20196;-65
2023/03/06 01:23:08;;;;;;;12.50;6.13;;;;;;;;;;5062865;28;20636;-66
2023/03/06 01:25:34;;;;;;;11.10;6.00;;;;;;;;;;5043571;28;20243;-66
2023/03/06 01:27:59;;;;;;;15.87;8.07;;;;;;;;;;5060077;28;20287;-66
2023/03/06 01:30:24;;;;;;;20.70;8.93;;;;;;;;;;5060195;28;20200;-66
2023/03/06 01:32:50;;;;;;;18.77;10.10;;;;;;;;;;5059341;28;20228;-66
2023/03/06 01:35:15;;;;;;;12.50;7.10;;;;;;;;;;5056981;28;20201;-66
2023/03/06 01:37:41;;;;;;;11.87;5.83;;;;;;;;;;5062198;28;20189;-66
2023/03/06 01:40:08;;;;;;;15.60;6.30;;;;;;;;;;5050183;28;20186;-66
2023/03/06 01:42:34;;;;;;;15.47;7.10;;;;;;;;;;5057003;28;20383;-66
2023/03/06 01:45:04;;;;;;;17.10;6.63;;;;;;;;;;5058009;28;20381;-66
2023/03/06 01:47:29;;;;;;;9.83;5.70;;;;;;;;;;5050354;28;20208;-66
2023/03/06 01:49:56;;;;;;;12.07;6.87;;;;;;;;;;5066640;28;20193;-66
2023/03/06 01:52:26;;;;;;;15.50;7.67;;;;;;;;;;5058773;28;20196;-66
2023/03/06 01:55:14;;;;;;;13.93;6.90;;;;;;;;;;5050348;28;20202;-66
2023/03/06 01:57:44;;;;;;;15.57;7.00;;;;;;;;;;5051603;28;20193;-66
2023/03/06 02:00:13;;;;;;;9.77;5.90;;;;;;;;;;5050152;28;20855;-66
2023/03/06 02:02:40;;;;;;;15.47;6.63;;;;;;;;;;5054889;28;20267;-66
2023/03/06 02:05:06;;;;;;;11.70;6.17;;;;;;;;;;5052302;28;20217;-66
2023/03/06 02:07:33;;;;;;;12.37;6.40;;;;;;;;;;5064640;28;20189;-67
2023/03/06 02:09:58;;;;;;;10.07;6.07;;;;;;;;;;5060254;28;20189;-67
2023/03/06 02:12:25;;;;;;;10.77;6.10;;;;;;;;;;5050500;28;20188;-67
2023/03/06 02:14:50;;;;;;;13.10;5.43;;;;;;;;;;5048825;28;20734;-66
2023/03/06 02:17:18;;;;;;;11.47;5.37;;;;;;;;;;5055083;28;20193;-67
2023/03/06 02:19:56;;;;;;;12.57;5.53;;;;;;;;;;5049729;28;20180;-66
2023/03/06 02:22:23;;;;;;;8.10;5.53;;;;;;;;;;5052631;28;20670;-67
2023/03/06 02:24:52;;;;;;;11.17;5.40;;;;;;;;;;5052046;28;20247;-67
2023/03/06 02:27:18;;;;;;;10.33;5.40;;;;;;;;;;5057369;28;20204;-66
2023/03/06 02:29:44;;;;;;;11.47;5.47;;;;;;;;;;5054928;28;20854;-66
2023/03/06 02:32:09;;;;;;;10.17;5.20;;;;;;;;;;5050289;28;20186;-67
2023/03/06 02:34:37;;;;;;;9.73;5.20;;;;;;;;;;5051502;28;20221;-67
2023/03/06 02:37:07;;;;;;;9.07;4.57;;;;;;;;;;5059907;28;20574;-66
2023/03/06 02:39:37;;;;;;;10.37;4.97;;;;;;;;;;5059316;28;20181;-66
2023/03/06 02:42:02;;;;;;;9.87;4.23;;;;;;;;;;5059275;28;20197;-67
2023/03/06 02:44:28;;;;;;;9.83;4.87;;;;;;;;;;5062121;28;20185;-67
2023/03/06 02:46:54;;;;;;;9.03;4.90;;;;;;;;;;5051392;28;20556;-66
2023/03/06 02:49:19;;;;;;;7.93;4.67;;;;;;;;;;5054852;28;20200;-66
2023/03/06 02:51:45;;;;;;;8.00;4.90;;;;;;;;;;5052790;28;20287;-67
2023/03/06 02:54:10;;;;;;;11.03;4.53;;;;;;;;;;5056460;28;20213;-67
2023/03/06 02:56:36;;;;;;;10.37;5.00;;;;;;;;;;5058644;28;20192;-67
2023/03/06 02:59:01;;;;;;;10.63;4.93;;;;;;;;;;5056959;28;20188;-67
2023/03/06 03:01:26;;;;;;;11.97;5.23;;;;;;;;;;5050712;28;20236;-67
2023/03/06 03:03:52;;;;;;;12.87;5.30;;;;;;;;;;5058912;28;20193;-67
2023/03/06 03:06:17;;;;;;;9.83;5.60;;;;;;;;;;5056071;28;20262;-66
2023/03/06 03:08:42;;;;;;;9.47;5.33;;;;;;;;;;5058002;28;20637;-67
2023/03/06 03:11:08;;;;;;;11.23;5.27;;;;;;;;;;5053606;28;20184;-67
2023/03/06 03:13:33;;;;;;;8.60;5.00;;;;;;;;;;5060467;28;20199;-67
2023/03/06 03:16:02;;;;;;;10.33;4.80;;;;;;;;;;5052423;28;20197;-66
2023/03/06 03:18:28;;;;;;;10.37;5.30;;;;;;;;;;5049076;28;20197;-66
2023/03/06 03:20:54;;;;;;;10.20;4.73;;;;;;;;;;5052237;28;20197;-66
2023/03/06 03:23:19;;;;;;;11.97;5.30;;;;;;;;;;5058256;28;20556;-65
2023/03/06 03:25:45;;;;;;;9.60;5.20;;;;;;;;;;5057078;28;20207;-66
2023/03/06 03:28:10;;;;;;;8.17;4.90;;;;;;;;;;5059841;28;20191;-66
2023/03/06 03:30:38;;;;;;;9.60;4.73;;;;;;;;;;5057404;28;20291;-66
2023/03/06 03:33:03;;;;;;;7.50;4.53;;;;;;;;;;5050886;28;20325;-66
2023/03/06 03:35:28;;;;;;;9.17;4.80;;;;;;;;;;5048204;28;20293;-66
2023/03/06 03:37:54;;;;;;;10.27;5.00;;;;;;;;;;5056903;28;20213;-66
2023/03/06 03:40:19;;;;;;;9.53;4.77;;;;;;;;;;5061004;28;20250;-66
2023/03/06 03:42:45;;;;;;;8.17;4.40;;;;;;;;;;5049857;28;20227;-66
2023/03/06 03:45:10;;;;;;;9.07;4.23;;;;;;;;;;5053961;28;20747;-66
2023/03/06 03:47:35;;;;;;;8.93;4.53;;;;;;;;;;5047333;28;20193;-66
2023/03/06 03:50:01;;;;;;;8.53;4.50;;;;;;;;;;5051416;28;20411;-66
2023/03/06 03:52:26;;;;;;;7.83;4.70;;;;;;;;;;5058270;28;20567;-66
2023/03/06 03:54:52;;;;;;;7.27;4.67;;;;;;;;;;5058086;28;20218;-66
2023/03/06 03:57:17;;;;;;;8.87;4.63;;;;;;;;;;5060505;28;20188;-67
2023/03/06 03:59:43;;;;;;;10.10;4.27;;;;;;;;;;5055895;28;20189;-66
2023/03/06 04:02:08;;;;;;;13.73;5.03;;;;;;;;;;5047781;28;20196;-66
2023/03/06 04:04:33;;;;;;;11.20;5.43;;;;;;;;;;5062710;28;20195;-66
2023/03/06 04:06:59;;;;;;;6.03;4.23;;;;;;;;;;5054449;28;20601;-66
2023/03/06 04:09:25;;;;;;;8.03;5.10;;;;;;;;;;5064671;28;20192;-66
2023/03/06 04:11:50;;;;;;;9.57;4.73;;;;;;;;;;5057454;28;20323;-66
2023/03/06 04:14:15;;;;;;;7.20;4.17;;;;;;;;;;5058453;28;20251;-66
2023/03/06 04:16:41;;;;;;;9.60;4.83;;;;;;;;;;5050459;28;20192;-66
2023/03/06 04:19:06;;;;;;;6.53;4.47;;;;;;;;;;5050814;28;20197;-66
2023/03/06 04:21:31;;;;;;;10.50;5.00;;;;;;;;;;5060226;28;20264;-66
2023/03/06 04:23:57;;;;;;;8.73;4.27;;;;;;;;;;5059419;28;20203;-66
2023/03/06 04:26:22;;;;;;;8.47;4.93;;;;;;;;;;5058405;28;20185;-68
2023/03/06 04:28:48;;;;;;;7.17;4.67;;;;;;;;;;5059437;28;20284;-66
2023/03/06 04:31:13;;;;;;;8.67;4.83;;;;;;;;;;5052651;28;20186;-66
2023/03/06 04:33:39;;;;;;;8.07;4.80;;;;;;;;;;5066000;28;20302;-66
2023/03/06 04:36:04;;;;;;;8.23;4.53;;;;;;;;;;5055553;28;20665;-66
2023/03/06 04:38:30;;;;;;;8.70;5.13;;;;;;;;;;5064710;28;20224;-66
2023/03/06 04:40:55;;;;;;;10.87;4.80;;;;;;;;;;5056224;28;20322;-66
2023/03/06 04:43:20;;;;;;;13.03;5.10;;;;;;;;;;5056503;28;20182;-66
2023/03/06 04:45:46;;;;;;;9.87;4.90;;;;;;;;;;5053838;28;20197;-66
2023/03/06 04:48:16;;;;;;;7.70;4.57;;;;;;;;;;5052469;28;20265;-66
2023/03/06 04:50:41;;;;;;;7.67;5.00;;;;;;;;;;5060117;28;20185;-66
2023/03/06 04:53:07;;;;;;;9.20;4.73;;;;;;;;;;5064089;28;20613;-66
2023/03/06 04:55:33;;;;;;;8.27;4.47;;;;;;;;;;5066495;28;20201;-66
2023/03/06 04:57:59;;;;;;;8.73;4.50;;;;;;;;;;5064485;28;20199;-66
2023/03/06 05:00:30;;;;;;;9.33;5.00;;;;;;;;;;5058501;28;20636;-66
2023/03/06 05:02:57;;;;;;;9.13;4.90;;;;;;;;;;5064963;28;20195;-66
2023/03/06 05:05:22;;;;;;;6.23;4.80;;;;;;;;;;5052939;28;20653;-66
2023/03/06 05:07:48;;;;;;;9.60;4.83;;;;;;;;;;5063019;28;20204;-67
2023/03/06 05:10:15;;;;;;;7.80;5.33;;;;;;;;;;5054227;28;20178;-66
2023/03/06 05:12:41;;;;;;;13.37;5.47;;;;;;;;;;5059918;28;20250;-66
2023/03/06 05:15:08;;;;;;;10.53;5.40;;;;;;;;;;5050855;28;20631;-66
2023/03/06 05:17:34;;;;;;;10.47;5.93;;;;;;;;;;5053521;28;20201;-66
2023/03/06 05:19:59;;;;;;;12.57;6.30;;;;;;;;;;5055794;28;20590;-67
2023/03/06 05:22:25;;;;;;;9.43;6.30;;;;;;;;;;5051668;28;20251;-67
2023/03/06 05:24:50;;;;;;;10.40;6.20;;;;;;;;;;5051182;28;20232;-68
2023/03/06 05:27:16;;;;;;;8.73;6.37;;;;;;;;;;5051462;28;20186;-67
2023/03/06 05:29:41;;;;;;;9.87;6.07;;;;;;;;;;5053756;28;20502;-68
2023/03/06 05:32:07;;;;;;;11.73;6.57;;;;;;;;;;5057355;28;20215;-67
2023/03/06 05:34:33;;;;;;;9.40;6.40;;;;;;;;;;5049536;28;20225;-68
2023/03/06 05:37:00;;;;;;;12.63;6.47;;;;;;;;;;5054464;28;20593;-68
2023/03/06 05:39:27;;;;;;;8.53;6.43;;;;;;;;;;5062871;28;20737;-69
2023/03/06 05:41:52;;;;;;;9.93;7.10;;;;;;;;;;5060209;28;20217;-69
2023/03/06 05:44:17;;;;;;;11.60;7.70;;;;;;;;;;5056655;28;20218;-69
2023/03/06 05:46:43;;;;;;;11.43;7.70;;;;;;;;;;5051408;28;20185;-69
2023/03/06 05:49:08;;;;;;;11.50;7.97;;;;;;;;;;5051272;28;20196;-70
2023/03/06 05:51:34;;;;;;;12.67;8.67;;;;;;;;;;5053089;28;20223;-69
2023/03/06 05:53:59;;;;;;;13.07;8.53;;;;;;;;;;5061183;28;20295;-69
2023/03/06 05:56:24;;;;;;;12.63;8.17;;;;;;;;;;5049169;28;20629;-69
2023/03/06 05:58:50;;;;;;;11.83;8.33;;;;;;;;;;5056148;28;20193;-69
2023/03/06 06:01:18;;;;;;;15.37;9.27;;;;;;;;;;5056328;28;20212;-69
2023/03/06 06:03:44;;;;;;;15.07;9.13;;;;;;;;;;5059100;28;20560;-70
2023/03/06 06:06:11;;;;;;;14.50;8.83;;;;;;;;;;5053424;28;20250;-68
2023/03/06 06:08:37;;;;;;;14.57;9.30;;;;;;;;;;5065524;28;20232;-69
2023/03/06 06:11:08;;;;;;;12.80;9.00;;;;;;;;;;5062456;28;20617;-68
2023/03/06 06:13:34;;;;;;;12.97;9.67;;;;;;;;;;5053986;28;20535;-68
2023/03/06 06:16:05;;;;;;;13.40;8.90;;;;;;;;;;5062130;28;20189;-69
2023/03/06 06:18:31;;;;;;;14.57;9.90;;;;;;;;;;5055101;28;20182;-68
2023/03/06 06:20:56;;;;;;;14.70;9.87;;;;;;;;;;5051890;28;20186;-68
2023/03/06 06:23:21;;;;;;;12.27;8.97;;;;;;;;;;5055631;28;20181;-68
2023/03/06 06:25:47;;;;;;;14.80;9.67;;;;;;;;;;5061271;28;20254;-69
2023/03/06 06:28:12;;;;;;;13.70;8.43;;;;;;;;;;5062290;28;20400;-69
2023/03/06 06:30:38;;;;;;;11.53;8.20;;;;;;;;;;5057038;28;20231;-68
2023/03/06 06:33:03;;;;;;;16.00;8.97;;;;;;;;;;5046998;28;20221;-68
2023/03/06 06:35:28;;;;;;;12.50;8.47;;;;;;;;;;5058270;28;20707;-69
2023/03/06 06:37:54;;;;;;;12.37;8.17;;;;;;;;;;5050058;28;20189;-69
2023/03/06 06:40:22;;;;;;;10.93;8.50;;;;;;;;;;5061994;28;20200;-69
2023/03/06 06:42:47;;;;;;;11.73;7.90;;;;;;;;;;5045195;28;20220;-69
2023/03/06 06:45:13;;;;;;;11.27;7.63;;;;;;;;;;5056764;28;20177;-68
2023/03/06 06:47:40;;;;;;;11.60;7.63;;;;;;;;;;5059542;28;20181;-69
2023/03/06 06:50:07;;;;;;;14.70;8.17;;;;;;;;;;5054781;28;20177;-68
2023/03/06 06:52:33;;;;;;;13.17;8.13;;;;;;;;;;5052837;28;20296;-69
2023/03/06 06:54:58;;;;;;;11.17;8.17;;;;;;;;;;5056343;28;20374;-69
2023/03/06 06:57:23;;;;;;;14.13;8.27;;;;;;;;;;5059178;28;20775;-69
2023/03/06 06:59:49;;;;;;;11.90;7.93;;;;;;;;;;5056593;28;20213;-68
2023/03/06 07:02:15;;;;;;;16.67;10.43;;;;;;;;;;5048845;28;20431;-68
2023/03/06 07:04:41;;;;;;;12.83;8.23;;;;;;;;;;5052100;28;20270;-69
2023/03/06 07:07:06;;;;;;;12.87;8.20;;;;;;;;;;5054339;28;20521;-70
2023/03/06 07:09:31;;;;;;;10.33;7.00;;;;;;;;;;5052210;28;20182;-73
2023/03/06 07:11:57;;;;;;;11.63;6.63;;;;;;;;;;5051728;28;20196;-74
2023/03/06 07:14:23;;;;;;;8.40;6.30;;;;;;;;;;5059386;28;20783;-74
2023/03/06 07:16:48;;;;;;;8.13;6.03;;;;;;;;;;5053474;28;20257;-73
2023/03/06 07:19:13;;;;;;;8.33;6.37;;;;;;;;;;5055532;28;20917;-73
2023/03/06 07:21:39;;;;;;;9.77;6.07;;;;;;;;;;5060907;28;20235;-73
2023/03/06 07:24:05;;;;;;;9.13;6.50;;;;;;;;;;5052257;28;20181;-72
2023/03/06 07:26:30;;;;;;;8.87;6.13;;;;;;;;;;5053502;28;20287;-71
2023/03/06 07:28:55;;;;;;;11.00;7.13;;;;;;;;;;5059470;28;20181;-71
2023/03/06 07:31:24;;;;;;;13.33;7.43;;;;;;;;;;5061197;28;20560;-72
2023/03/06 07:33:50;;;;;;;10.40;6.63;;;;;;;;;;5057094;28;20237;-71
2023/03/06 07:36:16;;;;;;;11.80;7.20;;;;;;;;;;5056734;28;20192;-72
2023/03/06 07:38:42;;;;;;;9.30;7.13;;;;;;;;;;5060891;28;20181;-72
2023/03/06 07:41:12;;;;;;;10.10;6.90;;;;;;;;;;5057070;28;20196;-72
2023/03/06 07:43:40;;;;;;;10.97;7.73;;;;;;;;;;5054608;28;20207;-72
2023/03/06 07:46:06;;;;;;;7.70;6.47;;;;;;;;;;5054934;28;20686;-71
2023/03/06 07:48:31;;;;;;;9.70;6.57;;;;;;;;;;5067972;28;20192;-71
2023/03/06 07:51:03;;;;;;;8.33;6.30;;;;;;;;;;5067371;28;20311;-71
2023/03/06 07:53:28;;;;;;;8.80;6.63;;;;;;;;;;5035298;28;20186;-71
2023/03/06 07:55:54;;;;;;;10.80;7.13;;;;;;;;;;5061583;28;20189;-71
2023/03/06 07:58:19;;;;;;;10.43;6.20;;;;;;;;;;5060800;28;20181;-72
2023/03/06 08:00:45;;;;;;;9.07;6.43;;;;;;;;;;5049830;28;20236;-71
2023/03/06 08:03:11;;;;;;;9.97;6.80;;;;;;;;;;5053222;28;20277;-71
2023/03/06 08:05:37;;;;;;;12.30;7.80;;;;;;;;;;5051229;28;20736;-71
2023/03/06 08:08:02;;;;;;;8.93;6.50;;;;;;;;;;5053871;28;20246;-72
2023/03/06 08:10:28;;;;;;;7.87;6.40;;;;;;;;;;5062060;28;20257;-71
2023/03/06 08:12:53;;;;;;;12.30;6.93;;;;;;;;;;5069102;28;20191;-71
2023/03/06 08:15:19;;;;;;;13.53;7.23;;;;;;;;;;5060348;28;20198;-71
2023/03/06 08:17:44;;;;;;;9.27;6.63;;;;;;;;;;5056951;28;20218;-70
2023/03/06 08:20:11;;;;;;;7.70;5.30;;;;;;;;;;5057902;28;20185;-70
2023/03/06 08:22:37;;;;;;;8.67;6.20;;;;;;;;;;5058341;28;20193;-70
2023/03/06 08:25:04;;;;;;;9.17;6.03;;;;;;;;;;5058631;28;20558;-70
2023/03/06 08:27:31;;;;;;;10.67;5.33;;;;;;;;;;5055437;28;20183;-70
2023/03/06 08:29:56;;;;;;;7.73;4.90;;;;;;;;;;5066084;28;20268;-71
2023/03/06 08:32:22;;;;;;;4.93;3.73;;;;;;;;;;5057583;28;20264;-69
2023/03/06 08:34:47;;;;;;;4.20;2.93;;;;;;;;;;5049911;28;20237;-69
2023/03/06 08:37:13;;;;;;;4.37;3.17;;;;;;;;;;5054893;28;20189;-69
2023/03/06 08:39:38;;;;;;;4.20;3.00;;;;;;;;;;5055146;28;20271;-69
2023/03/06 08:42:03;;;;;;;4.30;3.37;;;;;;;;;;5052564;28;20200;-69
2023/03/06 08:44:29;;;;;;;4.33;2.60;;;;;;;;;;5055914;28;20268;-69
2023/03/06 08:46:54;;;;;;;3.07;2.10;;;;;;;;;;5054654;28;20193;-69
2023/03/06 08:49:20;;;;;;;2.07;1.83;;;;;;;;;;5059013;28;20660;-69
2023/03/06 08:51:45;;;;;;;1.40;1.30;;;;;;;;;;5054135;28;20197;-70
2023/03/06 08:54:12;;;;;;;2.97;1.40;;;;;;;;;;5055436;28;20208;-69
2023/03/06 08:56:37;;;;;;;2.03;1.63;;;;;;;;;;5056681;28;20218;-69
2023/03/06 08:59:04;;;;;;;2.70;1.20;;;;;;;;;;5058694;28;20652;-69
2023/03/06 09:01:33;;;;;;;2.03;1.27;;;;;;;;;;5053070;28;20270;-70
2023/03/06 09:04:01;;;;;;;2.67;1.37;;;;;;;;;;5057686;28;20246;-70
2023/03/06 09:06:30;;;;;;;1.53;1.03;;;;;;;;;;5058202;28;20193;-70
2023/03/06 09:08:55;;;;;;;1.10;1.00;;;;;;;;;;5060895;28;20744;-70
2023/03/06 09:11:22;;;;;;;1.00;0.90;;;;;;;;;;5063799;28;20190;-70
2023/03/06 09:13:47;;;;;;;1.23;0.90;;;;;;;;;;5062800;28;20201;-70
2023/03/06 09:16:13;;;;;;;1.30;1.20;;;;;;;;;;5056530;28;20178;-70
2023/03/06 09:18:38;;;;;;;0.97;0.87;;;;;;;;;;5060993;28;20178;-68
2023/03/06 09:21:05;;;;;;;1.13;0.60;;;;;;;;;;5067005;28;20189;-68
2023/03/06 09:23:31;;;;;;;2.30;0.67;;;;;;;;;;5062707;28;20265;-68
2023/03/06 09:25:58;;;;;;;1.00;0.80;;;;;;;;;;5052298;28;20196;-69
2023/03/06 09:28:24;;;;;;;1.63;1.00;;;;;;;;;;5053457;28;20542;-69
2023/03/06 09:30:50;;;;;;;0.90;0.77;;;;;;;;;;5061958;28;20184;-68
2023/03/06 09:33:16;;;;;;;0.90;0.80;;;;;;;;;;5069435;28;20221;-68
2023/03/06 09:35:46;;;;;;;1.33;0.60;;;;;;;;;;5059118;28;20228;-68
2023/03/06 09:38:11;;;;;;;0.47;0.47;;;;;;;;;;5068614;28;20185;-69
2023/03/06 09:41:01;;;;;;;1.30;0.50;;;;;;;;;;5047794;28;20197;-69
2023/03/06 09:43:47;;;;;;;0.97;0.40;;;;;;;;;;5059768;28;20196;-69
2023/03/06 09:46:28;;;;;;;0.87;0.30;;;;;;;;;;5056213;28;20245;-69
2023/03/06 09:48:59;;;;;;;5.20;0.60;;;;;;;;;;5065025;28;20184;-69
2023/03/06 09:51:37;;;;;;;1.00;0.40;;;;;;;;;;5058291;28;20196;-68
2023/03/06 09:54:09;;;;;;;2.33;0.60;;;;;;;;;;5072455;28;20204;-69
2023/03/06 09:56:35;;;;;;;1.33;0.30;;;;;;;;;;5056221;28;20197;-69
2023/03/06 09:59:25;;;;;;;3.40;0.50;;;;;;;;;;5054698;28;20185;-69
2023/03/06 10:02:14;;;;;;;0.87;0.40;;;;;;;;;;5057551;28;20572;-68
2023/03/06 10:04:42;;;;;;;2.90;0.40;;;;;;;;;;5058355;28;20181;-68
2023/03/06 10:07:20;;;;;;;1.60;0.60;;;;;;;;;;5059403;28;20196;-68
2023/03/06 10:10:06;;;;;;;1.83;0.60;;;;;;;;;;5059597;28;20204;-68
2023/03/06 10:12:43;;;;;;;0.73;0.30;;;;;;;;;;5068680;28;20193;-69
2023/03/06 10:15:32;;;;;;;3.23;0.40;;;;;;;;;;5060603;28;20521;-68
2023/03/06 10:17:58;;;;;;;1.43;0.30;;;;;;;;;;5053737;28;20252;-68
2023/03/06 10:20:33;;;;;;;3.07;0.47;;;;;;;;;;5057090;28;20177;-69
2023/03/06 10:23:04;;;;;;;2.60;0.60;;;;;;;;;;5064813;28;20192;-68
2023/03/06 10:25:42;;;;;;;2.93;0.60;;;;;;;;;;5068716;28;20245;-69
2023/03/06 10:28:20;;;;;;;2.70;0.40;;;;;;;;;;5060004;28;20198;-69
2023/03/06 10:30:51;;;;;;;5.30;0.50;;;;;;;;;;5055050;28;20192;-68
2023/03/06 10:33:37;;;;;;;1.73;0.50;;;;;;;;;;5062382;28;20252;-69
2023/03/06 10:36:03;;;;;;;4.90;0.50;;;;;;;;;;5060863;28;20680;-68
2023/03/06 10:38:28;;;;;;;1.93;0.30;;;;;;;;;;5056842;28;20268;-68
2023/03/06 10:41:02;;;;;;;2.20;0.60;;;;;;;;;;5050314;28;20719;-69
2023/03/06 10:43:28;;;;;;;0.50;0.30;;;;;;;;;;5064636;28;20189;-68
2023/03/06 10:45:53;;;;;;;2.57;0.50;;;;;;;;;;5053272;28;20220;-69
2023/03/06 10:48:23;;;;;;;2.97;0.70;;;;;;;;;;5056285;28;20238;-68
2023/03/06 10:50:49;;;;;;;3.73;0.60;;;;;;;;;;5051917;28;20197;-69
2023/03/06 10:53:20;;;;;;;2.13;0.33;;;;;;;;;;5052496;28;20469;-68
2023/03/06 10:55:58;;;;;;;2.70;0.40;;;;;;;;;;5054327;28;20241;-68
2023/03/06 10:58:27;;;;;;;1.63;0.40;;;;;;;;;;5056431;28;20185;-68
2023/03/06 11:01:17;;;;;;;2.17;0.40;;;;;;;;;;5049092;28;20310;-68
2023/03/06 11:03:42;;;;;;;2.72;0.43;;;;;;;;;;5047526;28;20231;-67
2023/03/06 11:06:14;;;;;;;4.00;0.52;;;;;;;;;;5054118;28;20197;-68
2023/03/06 11:08:43;;;;;;;1.05;0.40;;;;;;;;;;5064681;28;20287;-68
2023/03/06 11:11:21;;;;;;;3.07;0.53;;;;;;;;;;5054643;28;20211;-68
2023/03/06 11:13:56;;;;;;;0.93;0.40;;;;;;;;;;5054590;28;20216;-67
2023/03/06 11:16:26;;;;;;;1.73;0.50;;;;;;;;;;5063122;28;20464;-67
2023/03/06 11:18:56;;;;;;;1.02;0.30;;;;;;;;;;5065857;28;20660;-68
2023/03/06 11:21:32;;;;;;;1.93;0.30;;;;;;;;;;5062181;28;20189;-67
2023/03/06 11:24:23;;;;;;;1.37;0.23;;;;;;;;;;5064324;28;20188;-68
2023/03/06 11:26:58;;;;;;;0.80;0.30;;;;;;;;;;5064356;28;20227;-67
2023/03/06 11:29:32;;;;;;;2.57;0.30;;;;;;;;;;5060491;28;20312;-66
2023/03/06 11:32:01;;;;;;;1.90;0.50;;;;;;;;;;5059121;28;20196;-68
2023/03/06 11:34:47;;;;;;;3.83;0.43;;;;;;;;;;5064264;28;20224;-67
2023/03/06 11:37:23;;;;;;;1.37;0.40;;;;;;;;;;5056631;28;20215;-68
2023/03/06 11:39:55;;;;;;;0.93;0.30;;;;;;;;;;5065830;28;20552;-67
2023/03/06 11:42:27;;;;;;;0.98;0.38;;;;;;;;;;5067716;28;20555;-67
2023/03/06 11:45:19;;;;;;;1.33;0.55;;;;;;;;;;5068224;28;20177;-67
2023/03/06 11:48:09;;;;;;;0.65;0.30;;;;;;;;;;5052764;28;20288;-67
2023/03/06 11:50:39;;;;;;;0.80;0.38;;;;;;;;;;5057141;28;20661;-67
2023/03/06 11:53:27;;;;;;;2.28;0.43;;;;;;;;;;5052083;28;20190;-67
2023/03/06 11:56:25;;;;;;;2.38;0.40;;;;;;;;;;5056550;28;20221;-66
2023/03/06 11:59:12;;;;;;;2.13;0.43;;;;;;;;;;5046418;28;20594;-66
2023/03/06 12:01:49;;;;;;;1.48;0.45;;;;;;;;;;5061416;28;20549;-67
2023/03/06 12:04:40;;;;;;;2.45;0.50;;;;;;;;;;5064758;28;20275;-65
2023/03/06 12:07:24;;;;;;;1.05;0.30;;;;;;;;;;5067522;28;20285;-67
2023/03/06 12:10:13;;;;;;;1.38;0.20;;;;;;;;;;5067614;28;20522;-66
2023/03/06 12:13:16;;;;;;;1.90;0.30;;;;;;;;;;5057968;28;20201;-66
2023/03/06 12:15:44;;;;;;;1.85;0.43;;;;;;;;;;5048914;28;20201;-66
2023/03/06 12:18:20;;;;;;;2.03;0.22;;;;;;;;;;5048881;28;20529;-66
2023/03/06 12:21:04;;;;;;;3.15;0.40;;;;;;;;;;5048753;28;20247;-66
2023/03/06 12:24:14;;;;;;;0.45;0.20;;;;;;;;;;5049183;28;20204;-66
2023/03/06 12:27:44;;;;;;;1.48;0.30;;;;;;;;;;5065114;28;20195;-66
2023/03/06 12:30:47;;;;;;;0.45;0.20;;;;;;;;;;5019865;28;20497;-66
2023/03/06 12:33:46;;;;;;;1.08;0.30;;;;;;;;;;5059617;28;20242;-66
2023/03/06 12:36:48;;;;;;;3.38;0.40;;;;;;;;;;5060608;28;20197;-66
2023/03/06 12:39:42;;;;;;;2.58;0.30;;;;;;;;;;5050645;28;20803;-66
2023/03/06 12:42:25;;;;;;;2.20;0.50;;;;;;;;;;5067542;28;20189;-66
2023/03/06 12:45:11;;;;;;;1.63;0.32;;;;;;;;;;5055044;28;20216;-66
2023/03/06 12:47:43;;;;;;;0.73;0.25;;;;;;;;;;5059587;28;20569;-66
2023/03/06 12:50:30;;;;;;;1.35;0.30;;;;;;;;;;5064223;28;20193;-66
2023/03/06 12:53:03;;;;;;;1.40;0.40;;;;;;;;;;5068369;28;20180;-66
2023/03/06 12:55:39;;;;;;;0.47;0.40;;;;;;;;;;5061804;28;20209;-66
2023/03/06 12:58:48;;;;;;;1.50;0.50;;;;;;;;;;5055598;28;20730;-66
2023/03/06 13:02:06;;;;;;;1.40;0.32;;;;;;;;;;5055606;28;20282;-66
2023/03/06 13:05:08;;;;;;;1.13;0.40;;;;;;;;;;5049099;28;20724;-65
2023/03/06 13:07:55;;;;;;;3.25;0.60;;;;;;;;;;5059333;28;20188;-65
2023/03/06 13:10:26;;;;;;;2.45;0.93;;;;;;;;;;5070578;28;20191;-65
2023/03/06 13:12:55;;;;;;;1.30;0.57;;;;;;;;;;5069325;28;20663;-67
2023/03/06 13:16:10;;;;;;;3.13;0.40;;;;;;;;;;5056692;28;20209;-66
2023/03/06 13:18:36;;;;;;;0.63;0.40;;;;;;;;;;5051114;28;20209;-66
2023/03/06 13:21:03;;;;;;;3.20;0.50;;;;;;;;;;5070657;28;20549;-66
2023/03/06 13:23:28;;;;;;;1.70;0.52;;;;;;;;;;5059153;28;20250;-66
2023/03/06 13:25:59;;;;;;;1.70;0.50;;;;;;;;;;5070578;28;20271;-66
2023/03/06 13:28:46;;;;;;;2.20;0.65;;;;;;;;;;5070971;28;20222;-67
2023/03/06 13:31:40;;;;;;;0.93;0.30;;;;;;;;;;5063510;28;20193;-66
2023/03/06 13:34:45;;;;;;;1.48;0.70;;;;;;;;;;5057221;28;20311;-66
2023/03/06 13:37:23;;;;;;;1.02;0.30;;;;;;;;;;5059102;28;20223;-65
2023/03/06 13:39:55;;;;;;;2.08;0.40;;;;;;;;;;5061463;28;20212;-66
2023/03/06 13:42:25;;;;;;;0.90;0.20;;;;;;;;;;5065998;28;20235;-68
2023/03/06 13:44:50;;;;;;;4.57;0.38;;;;;;;;;;5063103;28;20185;-67
2023/03/06 13:47:33;;;;;;;0.98;0.40;;;;;;;;;;5065302;28;20683;-66
2023/03/06 13:50:00;;;;;;;3.55;0.40;;;;;;;;;;5049663;28;20272;-66
2023/03/06 13:52:53;;;;;;;0.43;0.40;;;;;;;;;;5060070;28;20185;-65
2023/03/06 13:55:45;;;;;;;2.58;0.40;;;;;;;;;;5067712;28;20215;-66
2023/03/06 13:58:52;;;;;;;0.45;0.30;;;;;;;;;;5061898;28;20268;-66
2023/03/06 14:01:35;;;;;;;0.70;0.30;;;;;;;;;;5060878;28;20721;-65
2023/03/06 14:04:31;;;;;;;6.10;0.55;;;;;;;;;;5058144;28;20664;-66
2023/03/06 14:07:05;;;;;;;2.17;0.40;;;;;;;;;;5062140;28;20188;-65
2023/03/06 14:09:40;;;;;;;1.65;0.57;;;;;;;;;;5048929;28;20663;-65
2023/03/06 14:12:15;;;;;;;1.02;0.50;;;;;;;;;;5054478;28;20279;-65
2023/03/06 14:14:44;;;;;;;0.50;0.40;;;;;;;;;;5058147;28;20213;-65
2023/03/06 14:17:20;;;;;;;1.77;0.40;;;;;;;;;;5056793;28;21714;-65
2023/03/06 14:19:45;;;;;;;0.80;0.40;;;;;;;;;;5060324;28;20572;-65
2023/03/06 14:22:17;;;;;;;1.10;0.50;;;;;;;;;;5059786;28;20177;-65
2023/03/06 14:24:52;;;;;;;1.30;0.43;;;;;;;;;;5059040;28;20182;-65
2023/03/06 14:27:18;;;;;;;1.40;0.55;;;;;;;;;;5052583;28;20261;-65
2023/03/06 14:29:45;;;;;;;1.00;0.35;;;;;;;;;;5056067;28;20717;-65
2023/03/06 14:32:21;;;;;;;0.68;0.35;;;;;;;;;;5060732;28;20656;-65
2023/03/06 14:34:47;;;;;;;0.35;0.20;;;;;;;;;;5036995;28;20241;-65
2023/03/06 14:37:21;;;;;;;0.95;0.45;;;;;;;;;;5051628;28;20629;-65
2023/03/06 14:39:47;;;;;;;1.38;0.57;;;;;;;;;;5054927;28;20189;-65
2023/03/06 14:42:20;;;;;;;1.25;0.50;;;;;;;;;;5062995;28;20238;-65
2023/03/06 14:44:48;;;;;;;4.50;0.82;;;;;;;;;;5057283;28;20201;-65
2023/03/06 14:47:25;;;;;;;1.55;0.43;;;;;;;;;;5053015;28;20285;-65
2023/03/06 14:50:22;;;;;;;1.90;0.85;;;;;;;;;;5056054;28;20250;-65
2023/03/06 14:52:59;;;;;;;1.10;0.50;;;;;;;;;;5061818;28;20184;-64
2023/03/06 14:55:26;;;;;;;3.83;0.88;;;;;;;;;;5054604;28;20204;-64
2023/03/06 14:57:58;;;;;;;1.05;0.50;;;;;;;;;;5051169;28;20276;-65